Time;durP1;ratioP1;P1;durP2;ratioP2;P2;SDS_P1;SDS_P2;PMS_P1;PMS_P2;Temp;Humidity;BMP_temperature;BMP_pressure;BME280_temperature;BME280_humidity;BME280_pressure;Samples;Min_cycle;Max_cycle;Signal;HPM_P1;HPM_P2
2022/10/17 00:00:47;;;;;;;24.15;14.13;;;;;;;3.44;65.69;102450.36;1768579;80;21217;-60
2022/10/17 00:03:54;;;;;;;26.25;13.95;;;;;;;3.46;65.73;102453.37;1768429;80;21185;-60
2022/10/17 00:07:01;;;;;;;22.73;13.95;;;;;;;3.50;65.82;102463.09;1768464;80;21170;-61
2022/10/17 00:10:09;;;;;;;21.42;12.93;;;;;;;3.52;65.93;102458.45;1768616;79;21202;-62
2022/10/17 00:13:14;;;;;;;21.07;13.35;;;;;;;3.55;65.95;102456.08;1768543;80;21245;-60
2022/10/17 00:16:22;;;;;;;33.25;15.78;;;;;;;3.52;65.83;102459.81;1786728;78;21189;-60
2022/10/17 00:19:29;;;;;;;22.30;14.05;;;;;;;3.41;65.59;102471.67;1801225;78;21224;-61
2022/10/17 00:22:34;;;;;;;26.23;14.90;;;;;;;3.28;65.46;102476.00;1801332;79;21161;-62
2022/10/17 00:25:42;;;;;;;22.25;14.07;;;;;;;3.23;65.46;102467.70;1801199;79;21236;-61
2022/10/17 00:28:51;;;;;;;23.75;14.70;;;;;;;3.18;65.50;102461.63;1801288;78;21244;-61
2022/10/17 00:32:03;;;;;;;28.30;15.08;;;;;;;3.10;65.33;102463.38;1768295;80;21189;-60
2022/10/17 00:35:09;;;;;;;22.62;14.23;;;;;;;2.98;65.17;102468.92;1768542;79;21221;-61
2022/10/17 00:38:16;;;;;;;24.47;14.23;;;;;;;2.88;65.11;102464.95;1768426;80;21178;-62
2022/10/17 00:41:24;;;;;;;28.80;15.18;;;;;;;2.83;65.17;102468.82;1750435;80;21193;-60
2022/10/17 00:44:41;;;;;;;26.65;15.55;;;;;;;2.80;65.20;102460.86;1768564;80;21197;-60
2022/10/17 00:47:47;;;;;;;29.40;14.75;;;;;;;2.78;65.37;102463.64;1775039;79;21256;-61
2022/10/17 00:50:54;;;;;;;27.22;16.45;;;;;;;2.77;65.47;102470.02;1768495;80;21233;-60
2022/10/17 00:54:01;;;;;;;23.20;14.03;;;;;;;2.81;65.67;102466.66;1768469;80;21268;-61
2022/10/17 00:57:08;;;;;;;21.12;13.80;;;;;;;2.83;65.71;102470.17;1768833;80;21193;-61
2022/10/17 01:00:17;;;;;;;20.92;14.03;;;;;;;2.86;65.87;102469.55;1768762;80;21197;-60
2022/10/17 01:03:23;;;;;;;22.90;13.60;;;;;;;2.82;65.73;102466.58;1769660;80;21340;-61
2022/10/17 01:06:32;;;;;;;21.60;13.05;;;;;;;2.75;65.52;102462.91;1768789;80;21237;-61
2022/10/17 01:09:38;;;;;;;22.10;13.78;;;;;;;2.67;65.50;102461.95;1768416;80;21717;-61
2022/10/17 01:13:15;;;;;;;22.75;13.18;;;;;;;2.61;65.49;102466.30;1757863;80;21205;-61
2022/10/17 01:16:58;;;;;;;21.48;12.78;;;;;;;2.56;65.51;102453.94;1788076;79;21209;-60
2022/10/17 01:20:24;;;;;;;22.65;13.18;;;;;;;2.53;65.66;102452.75;1779684;80;21192;-61
2022/10/17 01:24:06;;;;;;;19.48;12.45;;;;;;;2.49;65.77;102453.36;1805592;78;21764;-61
2022/10/17 01:27:41;;;;;;;25.57;14.18;;;;;;;2.50;65.87;102461.00;1801298;79;21197;-62
2022/10/17 01:31:20;;;;;;;22.40;13.70;;;;;;;2.51;66.03;102455.98;1801401;79;21185;-61
2022/10/17 01:34:40;;;;;;;19.70;12.03;;;;;;;2.55;66.18;102461.67;1801398;78;21197;-61
2022/10/17 01:37:49;;;;;;;23.87;14.33;;;;;;;2.58;66.30;102462.86;1757854;80;21173;-61
2022/10/17 01:41:08;;;;;;;28.83;14.60;;;;;;;2.59;66.32;102470.02;1768817;80;21191;-60
2022/10/17 01:44:27;;;;;;;23.85;14.45;;;;;;;2.58;66.33;102479.09;1768491;80;21201;-61
2022/10/17 01:47:39;;;;;;;22.62;13.18;;;;;;;2.57;66.32;102493.56;1757982;81;21173;-62
2022/10/17 01:50:48;;;;;;;23.50;13.70;;;;;;;2.54;66.25;102487.81;1758922;80;21182;-62
2022/10/17 01:54:15;;;;;;;16.97;12.10;;;;;;;2.52;66.11;102496.46;1768552;80;21205;-61
2022/10/17 01:57:40;;;;;;;15.53;11.08;;;;;;;2.47;66.01;102497.65;1768463;81;21181;-61
2022/10/17 02:00:48;;;;;;;18.90;11.93;;;;;;;2.47;66.19;102497.65;1768640;80;21161;-60
2022/10/17 02:03:58;;;;;;;19.02;12.25;;;;;;;2.52;66.42;102508.63;1768729;80;21205;-61
2022/10/17 02:07:17;;;;;;;19.27;11.90;;;;;;;2.56;66.57;102502.14;1768997;80;21170;-60
2022/10/17 02:12:44;;;;;;;17.15;11.55;;;;;;;2.54;66.30;102501.80;1878037;76;28331;-60
2022/10/17 02:16:09;;;;;;;14.18;10.70;;;;;;;2.48;66.28;102508.39;1767001;81;21165;-61
2022/10/17 02:19:53;;;;;;;15.63;10.65;;;;;;;2.50;66.48;102515.07;1837996;78;21236;-61
2022/10/17 02:23:05;;;;;;;17.67;10.90;;;;;;;2.56;66.70;102522.42;1766920;81;21685;-61
2022/10/17 02:26:43;;;;;;;18.32;11.35;;;;;;;2.57;66.70;102521.45;1838298;77;21165;-60
2022/10/17 02:30:15;;;;;;;16.30;9.88;;;;;;;2.54;66.60;102522.07;1838114;78;21741;-62
2022/10/17 02:33:28;;;;;;;16.95;10.80;;;;;;;2.52;66.58;102532.10;1813027;79;21226;-61
2022/10/17 02:36:38;;;;;;;19.62;10.72;;;;;;;2.50;66.56;102524.53;1755519;81;21236;-60
2022/10/17 02:39:45;;;;;;;16.20;10.18;;;;;;;2.49;66.66;102526.34;1838495;77;21228;-60
2022/10/17 02:42:52;;;;;;;16.17;10.50;;;;;;;2.47;66.67;102536.84;1767262;81;21358;-61
2022/10/17 02:45:59;;;;;;;18.67;12.35;;;;;;;2.48;66.80;102538.13;1837976;77;21173;-60
2022/10/17 02:49:09;;;;;;;20.95;11.68;;;;;;;2.49;66.99;102540.36;1837974;78;21271;-61
2022/10/17 02:52:42;;;;;;;15.72;10.50;;;;;;;2.54;67.19;102546.40;1838248;78;21180;-61
2022/10/17 02:55:52;;;;;;;17.05;11.20;;;;;;;2.60;67.21;102544.28;1837598;78;21176;-62
2022/10/17 02:59:01;;;;;;;18.57;11.38;;;;;;;2.59;67.12;102549.77;1767218;81;21201;-61
2022/10/17 03:02:11;;;;;;;18.25;11.18;;;;;;;2.58;67.02;102554.32;1820971;78;21166;-62
2022/10/17 03:05:17;;;;;;;16.73;10.28;;;;;;;2.53;67.00;102556.83;1838545;78;21243;-61
2022/10/17 03:08:23;;;;;;;16.57;11.12;;;;;;;2.48;66.91;102561.09;1838542;78;21264;-61
2022/10/17 03:11:29;;;;;;;16.45;10.18;;;;;;;2.44;66.83;102557.27;1768016;79;21194;-61
2022/10/17 03:14:36;;;;;;;15.65;10.23;;;;;;;2.39;66.78;102556.13;1775959;81;21189;-61
2022/10/17 03:17:42;;;;;;;19.30;10.72;;;;;;;2.31;66.60;102560.12;1837734;78;21216;-62
2022/10/17 03:20:49;;;;;;;14.87;10.05;;;;;;;2.25;66.53;102560.41;1838472;78;21157;-61
2022/10/17 03:23:56;;;;;;;16.90;10.08;;;;;;;2.21;66.55;102551.55;1811465;77;21714;-61
